createdAt,value
2023-02-22T00:02:10.817Z,96290.06
2023-02-22T00:04:39.618Z,96286.94
2023-02-22T00:07:06.330Z,96281.09
2023-02-22T00:09:32.741Z,96283.22
2023-02-22T00:11:59.241Z,96283.00
2023-02-22T00:14:27.552Z,96285.81
2023-02-22T00:16:59.627Z,96282.63
2023-02-22T00:19:28.132Z,96282.50
2023-02-22T00:21:55.483Z,96279.53
2023-02-22T00:24:29.525Z,96286.97
2023-02-22T00:26:55.994Z,96288.94
2023-02-22T00:29:24.162Z,96276.69
2023-02-22T00:31:51.054Z,96273.31
2023-02-22T00:34:17.836Z,96274.81
2023-02-22T00:36:48.861Z,96277.03
2023-02-22T00:39:16.406Z,96267.47
2023-02-22T00:41:43.583Z,96271.00
2023-02-22T00:44:10.298Z,96263.50
2023-02-22T00:46:36.709Z,96265.41
2023-02-22T00:49:04.731Z,96261.84
2023-02-22T00:51:31.550Z,96264.06
2023-02-22T00:53:58.324Z,96267.16
2023-02-22T00:56:25.695Z,96257.19
2023-02-22T00:58:52.128Z,96265.84
2023-02-22T01:01:19.887Z,96256.28
2023-02-22T01:03:46.377Z,96259.00
2023-02-22T01:06:12.835Z,96264.22
2023-02-22T01:08:44.365Z,96263.59
2023-02-22T01:11:10.974Z,96254.50
2023-02-22T01:13:37.473Z,96254.34
2023-02-22T01:16:04.987Z,96259.78
2023-02-22T01:18:31.896Z,96254.63
2023-02-22T01:20:58.367Z,96250.16
2023-02-22T01:23:25.679Z,96246.66
2023-02-22T01:25:52.473Z,96247.47
2023-02-22T01:28:18.904Z,96247.00
2023-02-22T01:30:45.766Z,96246.81
2023-02-22T01:33:12.841Z,96240.28
2023-02-22T01:35:43.000Z,96239.75
2023-02-22T01:38:10.447Z,96232.44
2023-02-22T01:40:43.181Z,96238.56
2023-02-22T01:43:25.155Z,96236.50
2023-02-22T01:46:02.904Z,96237.41
2023-02-22T01:48:46.739Z,96234.16
2023-02-22T01:51:19.494Z,96230.63
2023-02-22T01:53:55.911Z,96236.00
2023-02-22T01:56:25.518Z,96226.63
2023-02-22T01:59:08.833Z,96229.16
2023-02-22T02:01:37.968Z,96227.47
2023-02-22T02:04:10.259Z,96220.84
2023-02-22T02:06:37.596Z,96223.34
2023-02-22T02:09:07.012Z,96226.47
2023-02-22T02:11:34.414Z,96226.47
2023-02-22T02:14:01.179Z,96226.56
2023-02-22T02:16:43.513Z,96232.50
2023-02-22T02:19:38.605Z,96225.63
2023-02-22T02:22:19.465Z,96237.28
2023-02-22T02:24:57.521Z,96232.47
2023-02-22T02:27:34.849Z,96241.72
2023-02-22T02:30:07.039Z,96242.06
2023-02-22T02:32:47.029Z,96243.16
2023-02-22T02:35:50.125Z,96239.56
2023-02-22T02:38:45.577Z,96239.16
2023-02-22T02:41:32.245Z,96238.06
2023-02-22T02:44:20.063Z,96235.31
2023-02-22T02:46:59.314Z,96224.34
2023-02-22T02:49:48.791Z,96231.28
2023-02-22T02:52:18.459Z,96239.84
2023-02-22T02:54:46.896Z,96231.59
2023-02-22T02:57:13.479Z,96236.59
2023-02-22T02:59:39.945Z,96232.47
2023-02-22T03:02:11.587Z,96224.06
2023-02-22T03:05:07.414Z,96227.00
2023-02-22T03:07:43.587Z,96231.47
2023-02-22T03:10:34.973Z,96231.19
2023-02-22T03:13:14.052Z,96233.31
2023-02-22T03:16:02.687Z,96228.69
2023-02-22T03:18:41.794Z,96218.91
2023-02-22T03:21:27.800Z,96222.69
2023-02-22T03:24:06.821Z,96224.00
2023-02-22T03:26:47.184Z,96220.06
2023-02-22T03:29:16.123Z,96225.19
2023-02-22T03:31:52.318Z,96217.22
2023-02-22T03:34:24.412Z,96225.09
2023-02-22T03:37:19.000Z,96221.16
2023-02-22T03:39:49.883Z,96225.63
2023-02-22T03:42:24.176Z,96228.34
2023-02-22T03:44:55.445Z,96227.44
2023-02-22T03:47:29.838Z,96213.97
2023-02-22T03:50:01.973Z,96225.44
2023-02-22T03:52:28.843Z,96216.31
2023-02-22T03:54:55.686Z,96226.25
2023-02-22T03:57:33.659Z,96228.50
2023-02-22T04:00:00.497Z,96224.47
2023-02-22T04:02:26.987Z,96226.63
2023-02-22T04:04:54.334Z,96220.63
2023-02-22T04:07:20.871Z,96226.72
2023-02-22T04:09:47.342Z,96217.03
2023-02-22T04:12:13.773Z,96219.53
2023-02-22T04:14:40.222Z,96210.78
2023-02-22T04:17:06.606Z,96214.88
2023-02-22T04:19:33.124Z,96212.19
2023-02-22T04:22:07.629Z,96206.44
2023-02-22T04:24:34.006Z,96208.75
2023-02-22T04:27:00.406Z,96208.41
2023-02-22T04:29:30.971Z,96207.31
2023-02-22T04:31:57.453Z,96199.16
2023-02-22T04:34:25.210Z,96200.13
2023-02-22T04:36:52.446Z,96198.28
2023-02-22T04:39:27.722Z,96195.13
2023-02-22T04:41:55.200Z,96195.94
2023-02-22T04:44:21.651Z,96192.69
2023-02-22T04:46:48.111Z,96189.59
2023-02-22T04:49:14.591Z,96196.59
2023-02-22T04:51:43.010Z,96197.94
2023-02-22T04:54:09.626Z,96192.28
2023-02-22T04:56:36.068Z,96187.72
2023-02-22T04:59:02.771Z,96196.78
2023-02-22T05:01:38.023Z,96200.31
2023-02-22T05:04:08.389Z,96194.56
2023-02-22T05:06:34.821Z,96197.31
2023-02-22T05:09:01.480Z,96188.84
2023-02-22T05:11:28.080Z,96185.84
2023-02-22T05:13:55.421Z,96193.38
2023-02-22T05:16:22.016Z,96199.81
2023-02-22T05:18:48.407Z,96196.44
2023-02-22T05:21:15.250Z,96198.94
2023-02-22T05:23:41.897Z,96194.47
2023-02-22T05:26:11.682Z,96197.59
2023-02-22T05:28:38.708Z,96192.16
2023-02-22T05:31:05.601Z,96193.31
2023-02-22T05:33:32.204Z,96196.06
2023-02-22T05:35:58.748Z,96196.25
2023-02-22T05:38:25.686Z,96195.81
2023-02-22T05:40:52.845Z,96194.09
2023-02-22T05:43:20.304Z,96193.31
2023-02-22T05:45:46.815Z,96194.63
2023-02-22T05:48:13.579Z,96194.97
2023-02-22T05:50:40.637Z,96197.94
2023-02-22T05:53:07.130Z,96192.50
2023-02-22T05:55:33.536Z,96195.53
2023-02-22T05:58:01.696Z,96190.63
2023-02-22T06:00:30.392Z,96196.81
2023-02-22T06:02:59.470Z,96193.03
2023-02-22T06:05:26.717Z,96198.13
2023-02-22T06:07:55.324Z,96200.03
2023-02-22T06:10:21.759Z,96198.22
2023-02-22T06:12:49.457Z,96200.47
2023-02-22T06:15:17.339Z,96194.47
2023-02-22T06:17:44.248Z,96193.94
2023-02-22T06:20:14.367Z,96195.19
2023-02-22T06:22:44.724Z,96201.09
2023-02-22T06:25:14.960Z,96212.91
2023-02-22T06:27:41.981Z,96200.13
2023-02-22T06:30:12.219Z,96204.59
2023-02-22T06:32:40.368Z,96200.31
2023-02-22T06:35:07.861Z,96198.22
2023-02-22T06:37:34.544Z,96204.59
2023-02-22T06:40:05.530Z,96200.09
2023-02-22T06:42:32.456Z,96215.00
2023-02-22T06:44:58.922Z,96215.41
2023-02-22T06:47:28.420Z,96220.97
2023-02-22T06:49:57.192Z,96218.13
2023-02-22T06:52:24.430Z,96226.28
2023-02-22T06:54:51.634Z,96223.28
2023-02-22T06:57:18.529Z,96218.81
2023-02-22T06:59:45.079Z,96224.38
2023-02-22T07:02:12.661Z,96223.84
2023-02-22T07:04:43.396Z,96225.81
2023-02-22T07:07:10.735Z,96225.03
2023-02-22T07:09:37.378Z,96219.72
2023-02-22T07:12:03.954Z,96224.00
2023-02-22T07:14:30.373Z,96216.66
2023-02-22T07:16:56.783Z,96209.09
2023-02-22T07:19:25.195Z,96214.56
2023-02-22T07:21:57.949Z,96204.66
2023-02-22T07:24:25.471Z,96210.84
2023-02-22T07:26:51.987Z,96210.53
2023-02-22T07:29:18.384Z,96208.69
2023-02-22T07:31:44.788Z,96203.75
2023-02-22T07:34:11.264Z,96202.41
2023-02-22T07:36:39.791Z,96207.00
2023-02-22T07:39:08.824Z,96204.16
2023-02-22T07:41:35.829Z,96201.91
2023-02-22T07:44:02.343Z,96193.78
2023-02-22T07:46:29.667Z,96203.09
2023-02-22T07:48:56.599Z,96198.88
2023-02-22T07:51:23.035Z,96198.13
2023-02-22T07:53:49.573Z,96191.13
2023-02-22T07:56:18.075Z,96189.16
2023-02-22T07:58:44.591Z,96193.53
2023-02-22T08:01:10.990Z,96190.59
2023-02-22T08:03:38.096Z,96191.44
2023-02-22T08:06:07.029Z,96189.59
2023-02-22T08:08:34.497Z,96182.72
2023-02-22T08:11:01.176Z,96185.16
2023-02-22T08:13:27.816Z,96178.06
2023-02-22T08:15:55.999Z,96172.63
2023-02-22T08:18:24.614Z,96173.53
2023-02-22T08:20:52.356Z,96185.28
2023-02-22T08:23:20.527Z,96179.00
2023-02-22T08:25:47.028Z,96168.78
2023-02-22T08:28:17.165Z,96169.34
2023-02-22T08:30:43.795Z,96167.84
2023-02-22T08:33:14.492Z,96169.72
2023-02-22T08:35:41.697Z,96174.97
2023-02-22T08:38:15.324Z,96165.22
2023-02-22T08:40:41.769Z,96174.34
2023-02-22T08:43:08.218Z,96173.84
2023-02-22T08:45:34.874Z,96164.06
2023-02-22T08:48:01.319Z,96169.09
2023-02-22T08:50:31.149Z,96170.47
2023-02-22T08:52:59.724Z,96162.00
2023-02-22T08:55:30.827Z,96160.66
2023-02-22T08:57:57.400Z,96166.53
2023-02-22T09:00:25.518Z,96167.00
2023-02-22T09:02:52.896Z,96153.59
2023-02-22T09:05:20.261Z,96163.38
2023-02-22T09:07:49.958Z,96156.91
2023-02-22T09:10:27.812Z,96149.69
2023-02-22T09:12:55.756Z,96158.16
2023-02-22T09:15:25.133Z,96152.47
2023-02-22T09:17:55.587Z,96146.97
2023-02-22T09:20:23.918Z,96150.25
2023-02-22T09:22:50.633Z,96152.19
2023-02-22T09:25:18.284Z,96153.41
2023-02-22T09:27:47.919Z,96146.63
2023-02-22T09:30:24.102Z,96142.13
2023-02-22T09:32:55.291Z,96146.88
2023-02-22T09:35:27.157Z,96141.03
2023-02-22T09:37:56.668Z,96131.22
2023-02-22T09:40:25.653Z,96131.22
2023-02-22T09:43:04.864Z,96130.72
2023-02-22T09:45:37.335Z,96133.88
2023-02-22T09:48:20.859Z,96134.03
2023-02-22T09:50:52.817Z,96134.31
2023-02-22T09:53:30.866Z,96129.59
2023-02-22T09:56:19.746Z,96129.88
2023-02-22T09:58:49.287Z,96130.72
2023-02-22T10:01:29.349Z,96127.50
2023-02-22T10:03:58.574Z,96120.00
2023-02-22T10:06:26.584Z,96119.75
2023-02-22T10:08:58.200Z,96127.00
2023-02-22T10:11:27.699Z,96124.59
2023-02-22T10:14:04.585Z,96122.91
2023-02-22T10:16:41.020Z,96102.50
2023-02-22T10:19:10.985Z,96114.34
2023-02-22T10:21:40.260Z,96106.53
2023-02-22T10:24:19.182Z,96108.06
2023-02-22T10:26:46.768Z,96103.25
2023-02-22T10:29:43.833Z,96106.09
2023-02-22T10:32:36.271Z,96110.69
2023-02-22T10:35:10.862Z,96122.31
2023-02-22T10:37:38.378Z,96104.94
2023-02-22T10:40:24.149Z,96102.09
2023-02-22T10:42:50.811Z,96103.63
2023-02-22T10:45:27.691Z,96106.13
2023-02-22T10:47:58.905Z,96110.69
2023-02-22T10:50:31.191Z,96110.94
2023-02-22T10:52:57.752Z,96101.59
2023-02-22T10:55:24.588Z,96099.59
2023-02-22T10:57:59.685Z,96099.41
2023-02-22T11:00:32.960Z,96091.09
2023-02-22T11:03:02.267Z,96093.72
2023-02-22T11:05:36.831Z,96095.72
2023-02-22T11:08:16.827Z,96088.34
2023-02-22T11:10:43.450Z,96090.09
2023-02-22T11:13:37.845Z,96080.69
2023-02-22T11:16:21.466Z,96070.56
2023-02-22T11:18:48.855Z,96073.38
2023-02-22T11:21:22.626Z,96069.00
2023-02-22T11:23:50.484Z,96059.75
2023-02-22T11:26:20.403Z,96059.66
2023-02-22T11:28:56.053Z,96062.03
2023-02-22T11:31:27.924Z,96051.13
2023-02-22T11:36:41.784Z,96044.63
2023-02-22T11:39:43.778Z,96044.44
2023-02-22T11:42:23.980Z,96028.81
2023-02-22T11:45:25.527Z,96025.59
2023-02-22T11:47:59.852Z,96005.13
2023-02-22T11:51:16.235Z,95996.75
2023-02-22T11:53:48.682Z,96001.13
2023-02-22T11:56:16.126Z,96000.91
2023-02-22T11:59:11.715Z,95994.50
2023-02-22T12:01:52.216Z,95983.06
2023-02-22T12:04:37.613Z,95982.25
2023-02-22T12:07:08.302Z,95975.06
2023-02-22T12:09:46.785Z,95979.00
2023-02-22T12:12:22.605Z,95981.09
2023-02-22T12:15:05.939Z,95978.19
2023-02-22T12:17:35.164Z,95979.91
2023-02-22T12:20:10.359Z,95977.78
2023-02-22T12:22:47.194Z,95970.88
2023-02-22T12:25:19.533Z,95962.94
2023-02-22T12:27:49.270Z,95959.44
2023-02-22T12:30:24.440Z,95955.03
2023-02-22T12:32:59.948Z,95954.41
2023-02-22T12:35:34.867Z,95958.13
2023-02-22T12:38:09.387Z,95954.88
2023-02-22T12:41:03.914Z,95949.34
2023-02-22T12:43:37.141Z,95947.28
2023-02-22T12:46:16.458Z,95945.19
2023-02-22T12:48:54.395Z,95949.66
2023-02-22T12:51:41.275Z,95944.19
2023-02-22T12:54:16.323Z,95953.69
2023-02-22T12:57:21.304Z,95949.91
2023-02-22T12:59:56.044Z,95943.94
2023-02-22T13:02:56.893Z,95931.69
2023-02-22T13:05:25.219Z,95940.34
2023-02-22T13:08:05.619Z,95947.66
2023-02-22T13:10:40.254Z,95940.63
2023-02-22T13:13:12.653Z,95943.84
2023-02-22T13:16:08.065Z,95942.50
2023-02-22T13:18:52.110Z,95939.88
2023-02-22T13:21:38.142Z,95944.19
2023-02-22T13:24:19.648Z,95931.59
2023-02-22T13:26:50.115Z,95928.28
2023-02-22T13:29:24.384Z,95926.31
2023-02-22T13:31:54.342Z,95919.09
2023-02-22T13:34:46.968Z,95924.91
2023-02-22T13:37:24.329Z,95912.78
2023-02-22T13:40:19.956Z,95930.16
2023-02-22T13:43:11.394Z,95936.34
2023-02-22T13:46:08.975Z,95931.16
2023-02-22T13:49:11.554Z,95923.78
2023-02-22T13:51:46.376Z,95917.34
2023-02-22T13:54:19.412Z,95921.38
2023-02-22T13:56:49.062Z,95912.78
2023-02-22T13:59:25.412Z,95917.53
2023-02-22T14:01:55.491Z,95907.22
2023-02-22T14:04:32.443Z,95912.75
2023-02-22T14:07:29.922Z,95909.34
2023-02-22T14:10:01.655Z,95904.47
2023-02-22T14:12:31.554Z,95904.44
2023-02-22T14:15:27.774Z,95899.69
2023-02-22T14:18:02.596Z,95906.16
2023-02-22T14:20:35.127Z,95909.34
2023-02-22T14:23:24.513Z,95908.19
2023-02-22T14:25:51.837Z,95904.25
2023-02-22T14:28:36.958Z,95917.09
2023-02-22T14:31:08.608Z,95919.22
2023-02-22T14:33:53.336Z,95925.56
2023-02-22T14:36:22.780Z,95915.81
2023-02-22T14:38:52.447Z,95912.66
2023-02-22T14:41:22.470Z,95922.47
2023-02-22T14:43:50.599Z,95922.28
2023-02-22T14:46:20.341Z,95917.94
2023-02-22T14:48:49.719Z,95921.84
2023-02-22T14:51:26.979Z,95921.13
2023-02-22T14:53:55.437Z,95928.81
2023-02-22T14:56:22.945Z,95939.59
2023-02-22T14:58:55.599Z,95934.47
2023-02-22T15:01:31.193Z,95937.75
2023-02-22T15:04:18.357Z,95933.88
2023-02-22T15:06:45.311Z,95951.38
2023-02-22T15:09:27.635Z,95932.22
2023-02-22T15:12:29.896Z,95937.16
2023-02-22T15:15:16.849Z,95932.06
2023-02-22T15:17:46.077Z,95945.47
2023-02-22T15:20:16.671Z,95943.06
2023-02-22T15:22:43.649Z,95937.66
2023-02-22T15:25:11.832Z,95935.28
2023-02-22T15:27:40.677Z,95943.53
2023-02-22T15:30:29.017Z,95944.59
2023-02-22T15:33:04.202Z,95942.94
2023-02-22T15:35:33.357Z,95947.66
2023-02-22T15:38:01.949Z,95937.44
2023-02-22T15:40:34.810Z,95946.38
2023-02-22T15:43:04.816Z,95948.78
2023-02-22T15:45:34.550Z,95956.47
2023-02-22T15:48:01.514Z,95963.03
2023-02-22T15:50:31.112Z,95956.50
2023-02-22T15:53:00.601Z,95954.44
2023-02-22T15:55:33.274Z,95955.72
2023-02-22T15:58:26.403Z,95957.47
2023-02-22T16:01:02.466Z,95957.16
2023-02-22T16:03:38.744Z,95967.69
2023-02-22T16:06:10.682Z,95964.00
2023-02-22T16:08:59.549Z,95963.78
2023-02-22T16:11:31.590Z,95963.59
2023-02-22T16:14:06.094Z,95976.16
2023-02-22T16:16:36.362Z,95978.69
2023-02-22T16:19:40.169Z,95979.47
2023-02-22T16:22:23.185Z,95985.75
2023-02-22T16:24:52.290Z,95982.56
2023-02-22T16:27:20.464Z,95992.91
2023-02-22T16:30:23.998Z,95989.63
2023-02-22T16:32:57.436Z,95988.19
2023-02-22T16:35:29.317Z,95990.75
2023-02-22T16:38:03.409Z,95991.25
2023-02-22T16:40:40.277Z,95993.56
2023-02-22T16:43:11.798Z,95991.75
2023-02-22T16:45:39.635Z,95992.09
2023-02-22T16:48:19.559Z,95990.00
2023-02-22T16:50:46.798Z,96000.19
2023-02-22T16:53:13.935Z,96001.56
2023-02-22T16:55:44.601Z,96012.19
2023-02-22T16:58:13.808Z,96009.59
2023-02-22T17:00:42.225Z,96009.16
2023-02-22T17:03:15.417Z,96014.66
2023-02-22T17:05:42.702Z,96013.31
2023-02-22T17:08:09.238Z,96010.47
2023-02-22T17:10:39.279Z,96023.66
2023-02-22T17:13:21.876Z,96026.44
2023-02-22T17:15:50.057Z,96021.81
2023-02-22T17:18:22.522Z,96025.50
2023-02-22T17:20:52.918Z,96033.00
2023-02-22T17:23:20.105Z,96037.28
2023-02-22T17:26:02.375Z,96041.78
2023-02-22T17:28:29.499Z,96038.97
2023-02-22T17:31:01.495Z,96034.09
2023-02-22T17:33:31.022Z,96038.09
2023-02-22T17:35:59.531Z,96041.22
2023-02-22T17:38:28.953Z,96043.25
2023-02-22T17:40:57.187Z,96053.56
2023-02-22T17:43:25.662Z,96045.94
2023-02-22T17:45:54.497Z,96050.59
2023-02-22T17:48:23.822Z,96050.69
2023-02-22T17:50:51.371Z,96050.59
2023-02-22T17:53:21.873Z,96053.50
2023-02-22T17:55:49.290Z,96043.06
2023-02-22T17:58:16.386Z,96056.03
2023-02-22T18:00:46.396Z,96050.69
2023-02-22T18:03:16.440Z,96063.09
2023-02-22T18:05:46.481Z,96057.13
2023-02-22T18:08:14.394Z,96057.81
2023-02-22T18:10:44.880Z,96058.66
2023-02-22T18:13:17.903Z,96060.38
2023-02-22T18:15:45.823Z,96060.28
2023-02-22T18:18:13.352Z,96061.00
2023-02-22T18:20:44.949Z,96061.47
2023-02-22T18:23:14.770Z,96061.22
2023-02-22T18:25:57.207Z,96057.16
2023-02-22T18:28:31.241Z,96064.94
2023-02-22T18:30:59.203Z,96057.88
2023-02-22T18:33:26.425Z,96063.06
2023-02-22T18:35:53.212Z,96058.44
2023-02-22T18:38:24.730Z,96066.34
2023-02-22T18:41:05.676Z,96062.31
2023-02-22T18:43:34.155Z,96052.41
2023-02-22T18:46:13.804Z,96059.91
2023-02-22T18:48:40.685Z,96051.47
2023-02-22T18:51:15.274Z,96052.09
2023-02-22T18:53:46.969Z,96050.75
2023-02-22T18:56:17.038Z,96054.13
2023-02-22T18:58:43.845Z,96055.31
2023-02-22T19:01:16.400Z,96053.97
2023-02-22T19:03:43.511Z,96052.53
2023-02-22T19:06:10.200Z,96053.88
2023-02-22T19:08:39.653Z,96055.78
2023-02-22T19:11:09.149Z,96062.72
2023-02-22T19:13:36.309Z,96058.88
2023-02-22T19:16:04.606Z,96058.88
2023-02-22T19:18:31.198Z,96052.06
2023-02-22T19:20:59.406Z,96046.59
2023-02-22T19:23:26.387Z,96046.59
2023-02-22T19:25:55.045Z,96048.88
2023-02-22T19:28:27.861Z,96046.34
2023-02-22T19:30:54.486Z,96055.16
2023-02-22T19:33:25.956Z,96055.16
2023-02-22T19:35:52.450Z,96051.53
2023-02-22T19:38:19.586Z,96062.91
2023-02-22T19:40:46.534Z,96056.31
2023-02-22T19:43:14.184Z,96059.41
2023-02-22T19:45:40.665Z,96054.34
2023-02-22T19:48:07.181Z,96059.56
2023-02-22T19:50:33.813Z,96059.28
2023-02-22T19:53:00.212Z,96061.56
2023-02-22T19:55:32.136Z,96063.44
2023-02-22T19:57:58.619Z,96067.97
2023-02-22T20:00:27.668Z,96065.31
2023-02-22T20:03:05.871Z,96067.84
2023-02-22T20:05:33.878Z,96062.91
2023-02-22T20:08:00.356Z,96062.91
2023-02-22T20:10:26.909Z,96076.13
2023-02-22T20:12:53.718Z,96077.59
2023-02-22T20:15:21.776Z,96072.66
2023-02-22T20:17:50.353Z,96079.56
2023-02-22T20:22:55.674Z,96070.75
2023-02-22T20:25:22.066Z,96074.25
2023-02-22T20:27:49.796Z,96072.78
2023-02-22T20:30:18.155Z,96075.19
2023-02-22T20:32:45.059Z,96081.84
2023-02-22T20:35:11.633Z,96074.63
2023-02-22T20:37:40.323Z,96079.44
2023-02-22T20:40:06.960Z,96079.97
2023-02-22T20:42:33.498Z,96081.19
2023-02-22T20:45:04.637Z,96077.03
2023-02-22T20:47:31.281Z,96069.31
2023-02-22T20:49:57.980Z,96089.19
2023-02-22T20:52:25.485Z,96086.09
2023-02-22T20:54:51.867Z,96088.00
2023-02-22T20:57:18.312Z,96100.16
2023-02-22T20:59:46.182Z,96095.72
2023-02-22T21:02:12.591Z,96092.94
2023-02-22T21:04:39.027Z,96099.44
2023-02-22T21:07:05.519Z,96103.41
2023-02-22T21:09:33.701Z,96090.84
2023-02-22T21:12:00.232Z,96095.06
2023-02-22T21:14:26.738Z,96093.63
2023-02-22T21:16:53.962Z,96099.38
2023-02-22T21:19:25.788Z,96097.88
2023-02-22T21:21:55.456Z,96094.41
2023-02-22T21:24:24.468Z,96093.75
2023-02-22T21:26:52.084Z,96094.94
2023-02-22T21:29:19.420Z,96092.03
2023-02-22T21:31:46.312Z,96092.38
2023-02-22T21:34:17.442Z,96101.31
2023-02-22T21:36:45.161Z,96096.94
2023-02-22T21:39:18.147Z,96094.56
2023-02-22T21:41:52.053Z,96093.63
2023-02-22T21:44:19.125Z,96099.63
2023-02-22T21:46:48.713Z,96093.22
2023-02-22T21:49:15.803Z,96099.06
2023-02-22T21:51:43.544Z,96101.31
2023-02-22T21:54:11.973Z,96099.81
2023-02-22T21:56:41.285Z,96103.31
2023-02-22T21:59:14.364Z,96096.94
2023-02-22T22:01:49.824Z,96099.41
2023-02-22T22:04:27.775Z,96099.53
2023-02-22T22:06:56.806Z,96105.94
2023-02-22T22:09:28.660Z,96109.88
2023-02-22T22:12:05.447Z,96101.09
2023-02-22T22:14:34.020Z,96115.44
2023-02-22T22:17:01.012Z,96107.09
2023-02-22T22:19:34.114Z,96113.56
2023-02-22T22:22:00.947Z,96110.13
2023-02-22T22:24:31.882Z,96117.97
2023-02-22T22:27:03.505Z,96123.38
2023-02-22T22:29:30.581Z,96113.03
2023-02-22T22:31:57.166Z,96113.59
2023-02-22T22:34:29.488Z,96119.31
2023-02-22T22:36:58.780Z,96120.81
2023-02-22T22:39:26.789Z,96117.56
2023-02-22T22:41:53.892Z,96122.03
2023-02-22T22:44:24.407Z,96123.22
2023-02-22T22:46:53.967Z,96127.41
2023-02-22T22:49:24.070Z,96125.97
2023-02-22T22:51:51.095Z,96122.38
2023-02-22T22:54:17.509Z,96136.97
2023-02-22T22:56:43.947Z,96133.75
2023-02-22T22:59:10.620Z,96139.69
2023-02-22T23:01:40.622Z,96138.88
2023-02-22T23:04:10.696Z,96137.81
2023-02-22T23:06:43.749Z,96137.00
2023-02-22T23:09:31.689Z,96138.34
2023-02-22T23:12:08.843Z,96140.47
2023-02-22T23:14:38.265Z,96141.41
2023-02-22T23:17:13.564Z,96144.22
2023-02-22T23:19:41.320Z,96147.66
2023-02-22T23:22:08.613Z,96154.00
2023-02-22T23:24:36.374Z,96144.69
2023-02-22T23:27:07.184Z,96150.41
2023-02-22T23:29:37.800Z,96145.25
2023-02-22T23:32:05.959Z,96159.53
2023-02-22T23:34:32.928Z,96153.03
2023-02-22T23:36:59.343Z,96147.28
2023-02-22T23:39:26.101Z,96154.44
2023-02-22T23:41:55.149Z,96159.16
2023-02-22T23:44:22.489Z,96162.00
2023-02-22T23:46:55.543Z,96154.22
2023-02-22T23:49:27.222Z,96151.81
2023-02-22T23:51:55.492Z,96145.00
2023-02-22T23:54:24.723Z,96143.16
2023-02-22T23:56:57.620Z,96141.31
2023-02-22T23:59:29.010Z,96145.09
